»·PEaware :: SKY34A KPRC-KHII

SKY34A :: KPRC-KHII

FLIGHT INFORMATION

Flight Status: Arrived
Operator:
Sky High Charters
More flights by this operator :: More flights under this callsign
Pilot: Pilot 1. (39959)
Aircraft: Unknown
(T206)
More flights by this aircraft type
Origin: KPRC Love
United States
Destination: KHII Lake Havasu City
United States
More flights between these airports :: More routes between these airports
Route: WNSKI2 MUMTE V12 EED
File this flight plan on PilotEdge
Remarks:
Altitude:
(Current/Filed)
11,000ft
Speed:
(Current/Filed)
150kts
Departed: 17-Apr-23 07:52 AM
Arrived: 17-Apr-23 08:54 AM
Distance/Time
Traveled:
96nm/1:01
Distance/Time
To Go:
Arrived

Flight Plot

Page will automatically refresh every two minutes.

Flight plan parsing failed; only flown route is shown


Map Options




Map Legend


Flown Route
Filed Route
Departure Airport
Arrival Airport
Navaid (VOR, NDB)
Fix

Horizontal Profiles

Position Reports

Time Latitude Longitude Heading Altitude Ground
Speed
17-Apr-23 07:30 -21.982385 -47.339215 73 1971ft 0kts
17-Apr-23 07:31 -21.982385 -47.339215 73 1971ft 0kts
17-Apr-23 07:32 -21.982385 -47.339215 73 1971ft 0kts
17-Apr-23 07:39 34.658406 -112.421644 135 5048ft 0kts
17-Apr-23 07:40 34.658405 -112.421644 135 5048ft 0kts
17-Apr-23 07:41 34.658404 -112.421643 135 5048ft 0kts
17-Apr-23 07:42 34.658403 -112.421642 135 5048ft 0kts
17-Apr-23 07:43 34.658402 -112.421640 134 5048ft 0kts
17-Apr-23 07:44 34.658401 -112.421639 134 5048ft 0kts
17-Apr-23 07:45 34.658400 -112.421638 134 5048ft 0kts
17-Apr-23 07:46 34.658399 -112.421636 134 5048ft 0kts
17-Apr-23 07:47 34.657619 -112.420777 45 5048ft 27kts
17-Apr-23 07:48 34.666951 -112.410451 115 5048ft 9kts
17-Apr-23 07:49 34.666900 -112.410359 126 5048ft 0kts
17-Apr-23 07:50 34.666899 -112.410358 126 5048ft 0kts
17-Apr-23 07:51 34.659919 -112.416822 220 5120ft 92kts
17-Apr-23 07:52 34.641064 -112.434704 219 6370ft 86kts
17-Apr-23 07:53 34.622575 -112.452027 176 7869ft 84kts
17-Apr-23 07:54 34.616122 -112.426282 103 9318ft 85kts
17-Apr-23 07:55 34.603449 -112.394334 118 10039ft 142kts
17-Apr-23 07:56 34.582803 -112.348283 118 10000ft 159kts
17-Apr-23 07:57 34.561535 -112.300933 118 9993ft 159kts
17-Apr-23 07:58 34.532074 -112.268068 194 10011ft 158kts
17-Apr-23 07:59 34.498198 -112.301351 231 10001ft 160kts
17-Apr-23 08:00 34.475092 -112.347259 244 10000ft 160kts
17-Apr-23 08:01 34.459421 -112.397678 254 10000ft 160kts
17-Apr-23 08:02 34.451259 -112.450712 263 10000ft 160kts
17-Apr-23 08:03 34.450834 -112.504546 274 10000ft 160kts
17-Apr-23 08:04 34.458231 -112.557655 284 10000ft 160kts
17-Apr-23 08:05 34.473083 -112.608252 293 10000ft 160kts
17-Apr-23 08:06 34.495274 -112.654357 305 10147ft 153kts
17-Apr-23 08:07 34.519252 -112.695962 301 10469ft 150kts
17-Apr-23 08:08 34.549227 -112.731685 336 10227ft 170kts
17-Apr-23 08:09 34.591467 -112.756833 334 9998ft 163kts
17-Apr-23 08:10 34.633503 -112.775790 344 9999ft 160kts
17-Apr-23 08:11 34.677207 -112.785908 354 10000ft 160kts
17-Apr-23 08:12 34.715056 -112.803056 281 10010ft 158kts
17-Apr-23 08:13 34.717095 -112.856867 271 10000ft 160kts
17-Apr-23 08:14 34.718906 -112.911015 272 9999ft 160kts
17-Apr-23 08:15 34.720903 -112.965988 272 10000ft 164kts
17-Apr-23 08:16 34.722932 -113.021811 272 9946ft 166kts
17-Apr-23 08:17 34.724898 -113.077501 271 9944ft 164kts
17-Apr-23 08:18 34.726653 -113.133170 272 9944ft 164kts
17-Apr-23 08:19 34.728484 -113.188551 272 9944ft 164kts
17-Apr-23 08:20 34.730314 -113.243793 272 9945ft 164kts
17-Apr-23 08:21 34.732130 -113.299548 272 9944ft 165kts
17-Apr-23 08:22 34.733931 -113.355213 272 9944ft 165kts
17-Apr-23 08:23 34.735716 -113.411103 272 9944ft 165kts
17-Apr-23 08:24 34.737474 -113.466887 271 9944ft 165kts
17-Apr-23 08:25 34.739209 -113.522753 271 9944ft 165kts
17-Apr-23 08:26 34.740912 -113.578444 271 9944ft 165kts
17-Apr-23 08:27 34.742596 -113.634302 271 9944ft 165kts
17-Apr-23 08:28 34.744251 -113.690063 271 9944ft 165kts
17-Apr-23 08:29 34.745882 -113.745860 271 9944ft 165kts
17-Apr-23 08:30 34.747490 -113.801721 271 9944ft 165kts
17-Apr-23 08:31 34.749073 -113.857599 271 9944ft 165kts
17-Apr-23 08:32 34.750628 -113.913407 271 9944ft 165kts
17-Apr-23 08:33 34.752318 -113.969234 271 9944ft 165kts
17-Apr-23 08:34 34.754047 -114.025092 272 9944ft 165kts
17-Apr-23 08:35 34.755649 -114.080961 271 9944ft 165kts
17-Apr-23 08:36 34.757038 -114.136751 271 9944ft 165kts
17-Apr-23 08:37 34.758549 -114.192616 272 9944ft 165kts
17-Apr-23 08:38 34.760272 -114.249151 271 9962ft 179kts
17-Apr-23 08:39 34.761726 -114.307787 271 9942ft 166kts
17-Apr-23 08:40 34.763161 -114.363655 271 9944ft 165kts
17-Apr-23 08:41 34.764558 -114.419632 271 9944ft 165kts
17-Apr-23 08:42 34.779850 -114.471410 317 9268ft 188kts
17-Apr-23 08:43 34.821820 -114.511591 327 7774ft 193kts
17-Apr-23 08:44 34.860894 -114.493667 90 6268ft 188kts
17-Apr-23 08:45 34.821868 -114.477256 207 4796ft 184kts
17-Apr-23 08:46 34.779095 -114.482245 167 5022ft 151kts
17-Apr-23 08:47 34.739994 -114.465751 159 5071ft 140kts
17-Apr-23 08:48 34.697064 -114.447356 160 4066ft 175kts
17-Apr-23 08:49 34.652747 -114.424161 145 3042ft 168kts
17-Apr-23 08:50 34.620480 -114.394958 152 2210ft 92kts
17-Apr-23 08:51 34.599732 -114.378765 148 786ft 85kts
17-Apr-23 08:52 34.580142 -114.364693 149 804ft 79kts
17-Apr-23 08:53 34.574802 -114.363709 353 786ft 11kts
17-Apr-23 08:54 34.574826 -114.363017 188 786ft 0kts

Navigation Log

Ident Type
Flight plan parsing failed, navigation log unavailable